aviador You're here:

KNUI Decoded Metar

WEBSTER NAVAL in MD, USA
Report Time2017-08-19 14:53:00
UTC Time2017-08-19 15:02:03
Flight Rules unknown UNKNOWN
WindVRB at 03 kt
VisibilityN/A
Phenomena:N/A
Clouds:Few 065 Hf
Scattered 100 Hf
Expected CloudBase > 2,400 ft AGL from Temp-Dew spread
CeilingNone
Temp28°C (ISA +13)
Dew Point22°C (70% RH)
Heat Index30.7°C
QNH1013 hPa
Density Alt1,873 ft
Elevation23 ft
Report Wrong Elevation
Raw Report
METAR KNUI 191453Z AUTO VRB03KT FEW065 SCT100 28/22 A2991 RMK AO2 SLP129
T02830222 51009 $=

Extra information for KNUI:More info

Metar Taf Metar & Taf Last 4 Metars F.Rules Stats Wind Profile Meteogram Temp Stats Airport Information Weather charts Add Link Nearby VenuesMetar ALERT Operation Metar Decoded Social comments

AIRNAV info for KNUI